Time;durP1;ratioP1;P1;durP2;ratioP2;P2;SDS_P1;SDS_P2;PMS_P1;PMS_P2;Temp;Humidity;BMP_temperature;BMP_pressure;BME280_temperature;BME280_humidity;BME280_pressure;Samples;Min_cycle;Max_cycle;Signal;HPM_P1;HPM_P2
2022/10/25 00:00:47;;;;;;;6.78;1.30;;;;;;;9.35;59.04;100878.41;5024898;28;20036;-71
2022/10/25 00:03:13;;;;;;;8.25;2.17;;;;;;;9.03;60.43;100869.94;5025335;28;20848;-70
2022/10/25 00:05:40;;;;;;;12.60;2.10;;;;;;;9.12;59.92;100868.75;5028631;28;20036;-71
2022/10/25 00:08:06;;;;;;;12.50;1.65;;;;;;;9.03;60.46;100862.13;5025907;28;20060;-71
2022/10/25 00:10:33;;;;;;;10.50;1.95;;;;;;;8.87;60.83;100871.34;5024821;28;20114;-71
2022/10/25 00:12:58;;;;;;;8.40;2.00;;;;;;;8.72;61.65;100867.50;5025573;28;20053;-71
2022/10/25 00:15:24;;;;;;;9.95;2.10;;;;;;;8.96;60.54;100863.19;5010599;28;20040;-72
2022/10/25 00:17:50;;;;;;;13.10;2.25;;;;;;;8.94;60.71;100878.91;4994792;28;20131;-73
2022/10/25 00:20:16;;;;;;;10.88;2.13;;;;;;;9.13;60.00;100873.06;5027436;28;20501;-73
2022/10/25 00:22:42;;;;;;;6.28;2.45;;;;;;;9.11;59.98;100873.13;5026418;28;20087;-71
2022/10/25 00:25:08;;;;;;;14.43;3.00;;;;;;;8.91;60.97;100873.78;5026152;28;20147;-71
2022/10/25 00:27:33;;;;;;;8.02;2.65;;;;;;;9.07;60.25;100870.66;5007605;28;20045;-71
2022/10/25 00:30:00;;;;;;;7.72;3.10;;;;;;;8.97;60.16;100878.81;5026049;28;20037;-70
2022/10/25 00:32:25;;;;;;;10.13;3.40;;;;;;;9.16;60.42;100870.34;5026168;28;20049;-72
2022/10/25 00:34:50;;;;;;;10.15;4.07;;;;;;;9.03;60.73;100876.88;5025832;28;20041;-73
2022/10/25 00:37:16;;;;;;;18.25;3.05;;;;;;;8.85;61.58;100874.00;5008849;28;20049;-72
2022/10/25 00:39:42;;;;;;;18.30;4.47;;;;;;;8.70;62.56;100879.69;5025215;28;20119;-71
2022/10/25 00:42:14;;;;;;;8.18;3.50;;;;;;;9.21;60.29;100881.50;5024960;28;20049;-71
2022/10/25 00:44:39;;;;;;;12.38;4.40;;;;;;;9.22;61.04;100883.19;5025850;28;20116;-71
2022/10/25 00:47:20;;;;;;;13.90;4.20;;;;;;;9.23;60.63;100884.91;5026706;28;20584;-71
2022/10/25 00:49:55;;;;;;;13.68;4.05;;;;;;;9.46;60.21;100880.66;5025062;28;20040;-71
2022/10/25 00:52:21;;;;;;;15.30;4.32;;;;;;;9.04;61.60;100878.59;5026237;28;20045;-72
2022/10/25 00:54:50;;;;;;;13.48;4.15;;;;;;;9.03;61.84;100887.31;5022549;28;20033;-71
2022/10/25 00:57:26;;;;;;;10.15;4.38;;;;;;;9.05;61.77;100882.91;5027013;28;20179;-70
2022/10/25 00:59:52;;;;;;;16.38;6.07;;;;;;;8.90;62.23;100886.88;5015431;28;20033;-71
2022/10/25 01:02:21;;;;;;;9.73;3.83;;;;;;;9.15;61.33;100879.94;5025015;28;20042;-71
2022/10/25 01:04:46;;;;;;;9.40;4.35;;;;;;;9.30;60.74;100885.56;5010894;28;20262;-70
2022/10/25 01:07:12;;;;;;;15.82;4.90;;;;;;;9.07;61.34;100883.72;5008552;28;20053;-71
2022/10/25 01:09:39;;;;;;;17.23;5.43;;;;;;;8.77;62.39;100889.03;5027685;28;20036;-71
2022/10/25 01:12:05;;;;;;;9.23;4.15;;;;;;;9.10;61.27;100889.69;5023447;28;20780;-71
2022/10/25 01:14:39;;;;;;;15.45;5.18;;;;;;;9.14;61.33;100890.41;5007973;28;20025;-71
2022/10/25 01:17:26;;;;;;;17.67;5.55;;;;;;;9.11;61.23;100885.31;5011443;28;20128;-71
2022/10/25 01:20:22;;;;;;;17.42;6.22;;;;;;;9.32;60.61;100899.38;5023094;28;20090;-71
2022/10/25 01:22:55;;;;;;;13.20;5.57;;;;;;;9.05;61.28;100890.72;5024862;28;20469;-72
2022/10/25 01:25:40;;;;;;;18.45;6.70;;;;;;;9.36;60.46;100891.38;4995345;28;20032;-72
2022/10/25 01:28:47;;;;;;;15.10;5.43;;;;;;;9.03;61.45;100887.31;5008941;28;20722;-72
2022/10/25 01:31:45;;;;;;;14.32;6.03;;;;;;;9.13;60.96;100893.94;4990755;28;20675;-72
2022/10/25 01:34:25;;;;;;;14.48;5.32;;;;;;;9.30;60.82;100896.84;4989508;28;20046;-73
2022/10/25 01:37:07;;;;;;;15.85;6.50;;;;;;;9.09;61.97;100897.53;5005081;28;20106;-72
2022/10/25 01:39:40;;;;;;;21.33;6.07;;;;;;;9.14;61.46;100883.47;5014341;28;20584;-72
2022/10/25 01:42:08;;;;;;;18.52;5.43;;;;;;;9.27;60.57;100891.69;5012747;28;20049;-72
2022/10/25 01:45:10;;;;;;;25.15;6.93;;;;;;;8.68;63.49;100897.97;5009165;28;20021;-73
2022/10/25 01:47:48;;;;;;;16.25;6.05;;;;;;;8.74;62.86;100897.81;5024136;28;20068;-71
2022/10/25 01:50:23;;;;;;;13.40;6.38;;;;;;;8.98;62.16;100900.50;5024358;28;20515;-72
2022/10/25 01:52:49;;;;;;;17.60;7.13;;;;;;;9.42;60.30;100907.75;5025477;28;20075;-72
2022/10/25 01:55:15;;;;;;;21.77;6.88;;;;;;;9.05;62.14;100906.38;5023354;28;20132;-71
2022/10/25 01:58:10;;;;;;;20.02;6.55;;;;;;;9.11;62.45;100911.38;5024989;28;20118;-71
2022/10/25 02:01:04;;;;;;;14.77;5.72;;;;;;;9.67;60.69;100911.19;5001789;28;20600;-70
2022/10/25 02:03:59;;;;;;;22.98;8.10;;;;;;;9.43;61.39;100914.66;5012239;28;20120;-70
2022/10/25 02:06:43;;;;;;;15.32;7.35;;;;;;;9.84;60.76;100921.06;5037497;28;20032;-71
2022/10/25 02:09:32;;;;;;;18.38;7.78;;;;;;;9.58;61.89;100919.34;5039684;28;20139;-71
2022/10/25 02:11:59;;;;;;;17.92;8.57;;;;;;;9.54;62.08;100917.75;5025530;28;20064;-72
2022/10/25 02:14:37;;;;;;;19.85;8.32;;;;;;;9.35;62.52;100915.78;5027185;28;20065;-71
2022/10/25 02:17:10;;;;;;;18.63;7.50;;;;;;;9.25;63.01;100914.38;5021300;28;20049;-71
2022/10/25 02:19:41;;;;;;;29.75;9.93;;;;;;;8.94;64.36;100919.75;5015466;28;20064;-71
2022/10/25 02:22:09;;;;;;;15.80;7.90;;;;;;;9.86;61.33;100921.03;5007458;28;20620;-71
2022/10/25 02:24:36;;;;;;;21.95;7.88;;;;;;;8.90;64.23;100931.19;5004846;28;20078;-71
2022/10/25 02:27:05;;;;;;;22.95;7.65;;;;;;;9.69;61.90;100918.97;5023150;28;20055;-71
2022/10/25 02:29:32;;;;;;;24.42;9.45;;;;;;;9.97;61.56;100918.88;5014037;28;20144;-71
2022/10/25 02:31:58;;;;;;;18.17;8.63;;;;;;;10.14;60.62;100921.69;5022987;28;20178;-72
2022/10/25 02:34:24;;;;;;;17.83;9.27;;;;;;;9.96;61.28;100922.38;5006422;28;20025;-71
2022/10/25 02:36:52;;;;;;;22.27;9.13;;;;;;;10.15;60.61;100927.78;5004975;28;20041;-71
2022/10/25 02:39:19;;;;;;;27.95;9.63;;;;;;;9.70;62.13;100920.66;5004646;28;20037;-71
2022/10/25 02:41:44;;;;;;;24.58;9.02;;;;;;;9.85;61.80;100922.75;5026061;28;20041;-71
2022/10/25 02:44:10;;;;;;;19.27;9.30;;;;;;;10.40;60.20;100918.09;4999133;28;20029;-71
2022/10/25 02:46:35;;;;;;;21.35;10.48;;;;;;;10.04;61.09;100932.56;5015964;28;20061;-71
2022/10/25 02:49:01;;;;;;;24.67;11.23;;;;;;;9.03;64.55;100929.91;5010896;28;20091;-71
2022/10/25 02:51:26;;;;;;;21.27;9.57;;;;;;;9.64;62.67;100932.19;4996552;28;20072;-71
2022/10/25 02:53:52;;;;;;;26.85;11.52;;;;;;;9.71;62.65;100933.66;5028774;28;20046;-71
2022/10/25 02:56:20;;;;;;;32.10;10.88;;;;;;;9.96;61.81;100935.44;5011615;28;20045;-71
2022/10/25 02:58:47;;;;;;;23.77;9.50;;;;;;;9.75;62.79;100934.41;5007880;28;20374;-71
2022/10/25 03:01:14;;;;;;;27.58;11.63;;;;;;;10.27;61.15;100932.53;5018914;28;20032;-70
2022/10/25 03:03:40;;;;;;;22.52;10.57;;;;;;;10.05;61.63;100936.84;5025896;28;20292;-71
2022/10/25 03:06:06;;;;;;;22.90;10.57;;;;;;;10.10;61.34;100935.78;5028988;28;20143;-71
2022/10/25 03:08:32;;;;;;;27.02;12.25;;;;;;;9.90;62.04;100935.63;5010439;28;20047;-71
2022/10/25 03:10:58;;;;;;;28.30;11.15;;;;;;;9.79;62.50;100946.47;5013690;28;20032;-71
2022/10/25 03:13:24;;;;;;;21.80;11.57;;;;;;;9.70;63.06;100944.16;5025537;28;20053;-71
2022/10/25 03:15:49;;;;;;;22.35;11.43;;;;;;;9.96;62.13;100943.25;5027556;28;20578;-72
2022/10/25 03:18:15;;;;;;;28.60;12.25;;;;;;;10.20;61.50;100944.97;5025679;28;20080;-71
2022/10/25 03:20:41;;;;;;;26.27;11.40;;;;;;;10.30;61.52;100947.22;5014611;28;20037;-73
2022/10/25 03:23:07;;;;;;;31.67;13.90;;;;;;;10.42;60.61;100947.63;5011377;28;20588;-73
2022/10/25 03:25:33;;;;;;;31.90;12.95;;;;;;;10.42;60.64;100941.56;5029473;28;20053;-71
2022/10/25 03:28:01;;;;;;;32.00;12.57;;;;;;;10.19;61.63;100947.63;5025990;28;20049;-73
2022/10/25 03:30:28;;;;;;;27.55;12.23;;;;;;;9.99;62.07;100953.56;5012598;28;20037;-71
2022/10/25 03:32:54;;;;;;;26.48;11.00;;;;;;;10.21;61.29;100957.13;5009531;28;20464;-73
2022/10/25 03:35:20;;;;;;;24.10;10.57;;;;;;;10.59;60.13;100954.81;5013431;28;20028;-71
2022/10/25 03:37:47;;;;;;;24.77;11.43;;;;;;;10.55;60.14;100963.69;5026424;28;20536;-72
2022/10/25 03:40:12;;;;;;;19.45;11.38;;;;;;;10.31;60.78;100965.47;5026437;28;20036;-71
2022/10/25 03:42:38;;;;;;;23.52;10.65;;;;;;;10.45;60.34;100962.31;5025242;28;20049;-73
2022/10/25 03:45:04;;;;;;;24.98;11.30;;;;;;;9.74;62.70;100957.03;5026815;28;20040;-73
2022/10/25 03:47:29;;;;;;;24.77;12.77;;;;;;;9.93;62.03;100970.34;5011312;28;20049;-70
2022/10/25 03:49:55;;;;;;;25.35;10.02;;;;;;;9.80;62.63;100964.69;5009040;28;20540;-71
2022/10/25 03:52:20;;;;;;;21.45;10.70;;;;;;;10.46;60.65;100964.06;5026589;28;20057;-72
2022/10/25 03:54:45;;;;;;;20.95;10.43;;;;;;;10.48;60.43;100967.47;5027459;28;20116;-71
2022/10/25 03:57:11;;;;;;;21.63;11.55;;;;;;;9.74;62.56;100970.09;4995021;28;20425;-72
2022/10/25 03:59:36;;;;;;;21.70;12.15;;;;;;;9.83;62.69;100966.34;5011149;28;20758;-71
2022/10/25 04:02:02;;;;;;;24.88;10.82;;;;;;;10.14;61.52;100971.31;5015544;28;20119;-72
2022/10/25 04:04:27;;;;;;;26.92;11.43;;;;;;;9.91;62.75;100972.16;5024455;28;20556;-72
2022/10/25 04:06:53;;;;;;;21.98;13.10;;;;;;;10.19;61.66;100976.34;5025953;28;20052;-72
2022/10/25 04:09:18;;;;;;;21.38;10.55;;;;;;;9.75;63.12;100982.25;5008685;28;20120;-72
2022/10/25 04:11:44;;;;;;;23.42;11.23;;;;;;;10.11;62.29;100974.03;5007806;28;20659;-72
2022/10/25 04:14:09;;;;;;;21.00;10.38;;;;;;;10.13;61.97;100980.06;5025065;28;20957;-72
2022/10/25 04:16:35;;;;;;;18.15;10.60;;;;;;;10.18;61.80;100980.72;5024490;28;20110;-71
2022/10/25 04:19:00;;;;;;;19.50;10.10;;;;;;;10.30;61.44;100989.03;5027282;28;20192;-72
2022/10/25 04:21:26;;;;;;;21.38;9.68;;;;;;;10.56;60.36;100990.66;5025500;28;20494;-71
2022/10/25 04:23:51;;;;;;;22.15;10.60;;;;;;;10.33;61.32;100988.94;5024000;28;20049;-71
2022/10/25 04:26:18;;;;;;;21.30;10.23;;;;;;;10.12;62.02;100990.56;5028854;28;20654;-72
2022/10/25 04:28:49;;;;;;;20.48;10.52;;;;;;;10.37;60.87;100987.88;5024460;28;20509;-72
2022/10/25 04:31:14;;;;;;;22.90;10.27;;;;;;;10.73;59.99;100993.50;5029082;28;20103;-71
2022/10/25 04:33:40;;;;;;;21.15;9.75;;;;;;;10.48;60.84;101003.16;5006557;28;20053;-71
2022/10/25 04:36:05;;;;;;;19.60;9.43;;;;;;;10.31;61.40;101001.19;5017279;28;20037;-73
2022/10/25 04:38:31;;;;;;;18.30;9.52;;;;;;;10.39;60.80;101005.22;4996210;28;20056;-71
2022/10/25 04:40:58;;;;;;;22.25;10.00;;;;;;;10.84;59.54;101009.66;5011169;28;20041;-72
2022/10/25 04:43:25;;;;;;;23.27;9.20;;;;;;;10.61;60.55;101005.25;5006214;28;20033;-71
2022/10/25 04:45:51;;;;;;;18.92;8.75;;;;;;;10.64;60.49;101014.78;5006917;28;20033;-71
2022/10/25 04:48:17;;;;;;;16.20;9.63;;;;;;;10.60;60.64;101010.56;5025812;28;20131;-71
2022/10/25 04:50:43;;;;;;;13.95;9.07;;;;;;;10.75;60.11;101001.25;5027089;28;20025;-71
2022/10/25 04:53:08;;;;;;;16.88;8.70;;;;;;;10.74;60.16;101017.88;5026168;28;20044;-71
2022/10/25 04:55:34;;;;;;;27.02;9.18;;;;;;;10.67;60.29;101013.78;5026279;28;20033;-71
2022/10/25 04:57:59;;;;;;;19.75;8.43;;;;;;;10.18;61.60;101021.69;5025621;28;20191;-71
2022/10/25 05:00:25;;;;;;;18.17;8.98;;;;;;;10.37;60.78;101014.88;5023926;28;20119;-72
2022/10/25 05:02:51;;;;;;;25.27;8.73;;;;;;;10.35;61.47;101018.47;5025650;28;21958;-71
2022/10/25 05:05:17;;;;;;;21.73;9.23;;;;;;;10.12;62.11;101014.91;5025103;28;20044;-72
2022/10/25 05:07:43;;;;;;;26.25;10.82;;;;;;;10.61;60.89;101022.69;4997889;28;20494;-72
2022/10/25 05:10:08;;;;;;;24.17;10.05;;;;;;;10.00;62.40;101025.81;5007139;28;20025;-71
2022/10/25 05:12:34;;;;;;;20.75;9.10;;;;;;;10.13;62.22;101029.69;5023553;28;20599;-71
2022/10/25 05:14:59;;;;;;;16.00;9.00;;;;;;;10.24;62.00;101036.28;5009516;28;20037;-73
2022/10/25 05:17:25;;;;;;;17.33;9.18;;;;;;;10.37;61.45;101037.53;5025585;28;20233;-72
2022/10/25 05:19:50;;;;;;;14.93;8.35;;;;;;;10.21;61.73;101032.88;5023806;28;20029;-71
2022/10/25 05:22:16;;;;;;;18.23;9.75;;;;;;;10.32;61.46;101034.25;5025079;28;20501;-72
2022/10/25 05:24:41;;;;;;;17.67;9.50;;;;;;;10.53;60.74;101045.69;4997858;28;20643;-71
2022/10/25 05:27:07;;;;;;;17.17;9.77;;;;;;;10.05;62.03;101039.53;5010088;28;20053;-73
2022/10/25 05:29:32;;;;;;;13.95;8.05;;;;;;;10.30;61.66;101049.13;5006635;28;20036;-71
2022/10/25 05:31:58;;;;;;;15.90;9.05;;;;;;;10.54;60.45;101045.59;5021295;28;20124;-73
2022/10/25 05:34:24;;;;;;;21.40;9.25;;;;;;;10.37;61.08;101046.25;5023319;28;20765;-72
2022/10/25 05:36:50;;;;;;;14.52;8.32;;;;;;;10.17;61.67;101040.88;5023346;28;20095;-72
2022/10/25 05:39:15;;;;;;;19.45;8.75;;;;;;;10.62;60.44;101050.56;5025812;28;20123;-73
2022/10/25 05:41:41;;;;;;;21.70;9.63;;;;;;;10.54;60.78;101048.22;5020776;28;20098;-72
2022/10/25 05:44:07;;;;;;;16.52;8.73;;;;;;;10.60;60.35;101050.63;5025378;28;21288;-71
2022/10/25 05:46:32;;;;;;;20.92;8.80;;;;;;;10.28;61.47;101046.59;5023496;28;20091;-72
2022/10/25 05:48:58;;;;;;;15.30;7.78;;;;;;;10.32;61.21;101055.13;5006888;28;20566;-72
2022/10/25 05:51:26;;;;;;;19.17;8.15;;;;;;;10.15;61.80;101054.00;5007899;28;20073;-72
2022/10/25 05:53:54;;;;;;;16.88;8.02;;;;;;;10.25;61.14;101059.72;5023837;28;20033;-72
2022/10/25 05:56:21;;;;;;;12.55;7.30;;;;;;;10.29;61.09;101063.09;5025960;28;20732;-72
2022/10/25 05:58:48;;;;;;;18.48;8.68;;;;;;;10.13;61.93;101070.63;5024225;28;20608;-72
2022/10/25 06:01:16;;;;;;;16.58;7.70;;;;;;;10.08;61.90;101060.34;5026117;28;20041;-72
2022/10/25 06:03:42;;;;;;;16.92;7.95;;;;;;;10.71;60.32;101057.22;5005741;28;20038;-71
2022/10/25 06:06:10;;;;;;;20.42;8.15;;;;;;;10.00;61.97;101059.75;5026319;28;20051;-72
2022/10/25 06:08:37;;;;;;;21.33;7.97;;;;;;;10.27;61.94;101077.97;5023604;28;20252;-72
2022/10/25 06:11:11;;;;;;;19.65;7.30;;;;;;;10.91;59.78;101080.88;5026624;28;20048;-72
2022/10/25 06:13:37;;;;;;;15.35;7.35;;;;;;;10.50;61.23;101083.22;5021571;28;20053;-71
2022/10/25 06:16:07;;;;;;;11.07;5.70;;;;;;;11.04;59.35;101087.34;5026224;28;20033;-71
2022/10/25 06:18:34;;;;;;;20.73;6.85;;;;;;;10.72;60.43;101087.66;5008071;28;20056;-71
2022/10/25 06:21:11;;;;;;;15.77;6.85;;;;;;;10.61;60.65;101093.28;5013973;28;20502;-73
2022/10/25 06:23:38;;;;;;;17.75;5.90;;;;;;;10.64;60.65;101093.19;5021204;28;20060;-70
2022/10/25 06:26:12;;;;;;;18.00;6.40;;;;;;;10.20;61.64;101099.09;5026151;28;20026;-71
2022/10/25 06:28:39;;;;;;;14.73;6.30;;;;;;;10.15;61.53;101093.16;5023409;28;20689;-71
2022/10/25 06:31:07;;;;;;;17.42;6.68;;;;;;;10.48;60.45;101092.00;4995853;28;20152;-72
2022/10/25 06:33:33;;;;;;;12.23;5.18;;;;;;;10.14;61.17;101098.44;5023467;28;20033;-72
2022/10/25 06:36:00;;;;;;;12.00;5.47;;;;;;;10.47;60.74;101101.63;5023854;28;20045;-71
2022/10/25 06:38:27;;;;;;;15.85;6.05;;;;;;;10.29;61.23;101108.34;5009154;28;20135;-71
2022/10/25 06:41:00;;;;;;;16.92;6.57;;;;;;;10.59;60.00;101111.66;5005922;28;20029;-74
2022/10/25 06:43:26;;;;;;;12.52;5.05;;;;;;;10.19;61.28;101113.06;5021400;28;20175;-71
2022/10/25 06:45:52;;;;;;;17.67;5.93;;;;;;;10.84;59.34;101116.84;5024043;28;20044;-72
2022/10/25 06:48:17;;;;;;;12.57;6.00;;;;;;;10.67;59.88;101126.19;5024272;28;20084;-73
2022/10/25 06:50:43;;;;;;;15.50;5.65;;;;;;;10.10;61.72;101123.81;5002718;28;20033;-71
2022/10/25 06:53:08;;;;;;;10.95;6.10;;;;;;;10.58;60.15;101130.84;5023767;28;20056;-71
2022/10/25 06:55:34;;;;;;;16.80;6.85;;;;;;;10.50;60.47;101135.47;4998206;28;20039;-71
2022/10/25 06:57:59;;;;;;;13.23;5.57;;;;;;;10.18;61.44;101141.84;5009675;28;20130;-71
2022/10/25 07:00:25;;;;;;;13.13;6.05;;;;;;;9.97;61.99;101144.28;5023621;28;20033;-71
2022/10/25 07:02:58;;;;;;;20.88;6.47;;;;;;;10.58;60.06;101151.75;5035213;28;20164;-71
2022/10/25 07:05:24;;;;;;;17.30;6.10;;;;;;;10.38;60.95;101151.59;5012017;28;20033;-71
2022/10/25 07:07:50;;;;;;;12.48;4.90;;;;;;;10.55;60.78;101162.31;5024916;28;20048;-73
2022/10/25 07:10:16;;;;;;;19.00;7.22;;;;;;;10.59;60.35;101163.94;5024491;28;20033;-70
2022/10/25 07:12:41;;;;;;;21.17;6.45;;;;;;;10.42;60.69;101161.03;5004696;28;20409;-71
2022/10/25 07:15:07;;;;;;;9.07;5.63;;;;;;;10.68;59.92;101174.94;5022211;28;20106;-71
2022/10/25 07:17:33;;;;;;;10.68;6.20;;;;;;;10.53;60.67;101178.97;5022884;28;20048;-72
2022/10/25 07:19:58;;;;;;;11.32;6.55;;;;;;;10.74;59.84;101172.97;4995615;28;20069;-72
2022/10/25 07:22:24;;;;;;;17.38;8.45;;;;;;;10.42;60.99;101177.56;5024633;28;20129;-74
2022/10/25 07:24:49;;;;;;;20.20;6.65;;;;;;;10.78;59.82;101184.19;5021883;28;20069;-73
2022/10/25 07:27:15;;;;;;;17.33;6.93;;;;;;;10.87;59.13;101189.09;5028236;28;20047;-71
2022/10/25 07:29:41;;;;;;;18.77;6.18;;;;;;;11.04;58.97;101181.50;5007883;28;20809;-71
2022/10/25 07:32:08;;;;;;;16.67;7.25;;;;;;;10.35;60.68;101186.53;5029472;28;20115;-72
2022/10/25 07:34:34;;;;;;;28.60;6.85;;;;;;;11.12;59.11;101190.81;5028842;28;20030;-72
2022/10/25 07:36:59;;;;;;;26.55;6.32;;;;;;;10.87;59.49;101191.72;5012761;28;20578;-71
2022/10/25 07:39:25;;;;;;;15.23;5.85;;;;;;;10.80;59.89;101200.66;5013063;28;20037;-73
2022/10/25 07:41:52;;;;;;;16.10;7.45;;;;;;;11.19;59.26;101197.53;4997759;28;20025;-72
2022/10/25 07:44:19;;;;;;;19.27;6.03;;;;;;;11.33;58.34;101197.88;5010767;28;20037;-71
2022/10/25 07:46:44;;;;;;;23.27;7.25;;;;;;;11.70;57.08;101196.44;5025467;28;20041;-71
2022/10/25 07:49:10;;;;;;;14.18;7.45;;;;;;;11.60;57.54;101202.94;5029246;28;20136;-71
2022/10/25 07:51:35;;;;;;;18.30;6.22;;;;;;;11.27;58.32;101208.56;5023862;28;20033;-72
2022/10/25 07:54:01;;;;;;;15.65;6.15;;;;;;;11.37;58.35;101206.44;5027873;28;20044;-70
2022/10/25 07:56:26;;;;;;;19.08;6.35;;;;;;;11.78;56.76;101204.03;5027641;28;20828;-71
2022/10/25 07:58:52;;;;;;;25.55;7.18;;;;;;;10.61;60.40;101214.34;5011700;28;20560;-71
2022/10/25 08:01:26;;;;;;;14.65;6.30;;;;;;;10.75;60.40;101213.03;5017838;28;20073;-71
2022/10/25 08:03:52;;;;;;;22.05;5.47;;;;;;;11.37;58.42;101214.28;5009997;28;20037;-71
2022/10/25 08:06:19;;;;;;;17.67;8.30;;;;;;;10.74;59.88;101208.72;5027979;28;20037;-71
2022/10/25 08:08:45;;;;;;;22.50;7.47;;;;;;;11.68;57.46;101213.97;5025547;28;20033;-71
2022/10/25 08:11:10;;;;;;;15.80;5.65;;;;;;;12.23;56.52;101214.38;5009235;28;20038;-71
2022/10/25 08:13:37;;;;;;;14.65;6.47;;;;;;;12.43;55.40;101212.69;5025294;28;20029;-71
2022/10/25 08:16:04;;;;;;;17.67;6.03;;;;;;;12.42;55.37;101206.63;5026711;28;20053;-73
2022/10/25 08:18:30;;;;;;;15.75;5.97;;;;;;;12.08;55.94;101213.25;5026215;28;20045;-71
2022/10/25 08:20:56;;;;;;;18.90;6.20;;;;;;;12.74;54.34;101212.28;5027370;28;20035;-72
2022/10/25 08:23:22;;;;;;;11.77;4.88;;;;;;;12.30;55.25;101220.22;5009872;28;20059;-72
2022/10/25 08:25:48;;;;;;;12.52;4.50;;;;;;;12.05;56.46;101217.78;5024013;28;20033;-71
2022/10/25 08:28:13;;;;;;;15.23;5.65;;;;;;;11.63;57.17;101231.63;5024367;28;20065;-71
2022/10/25 08:30:40;;;;;;;14.50;4.57;;;;;;;12.18;55.79;101223.34;5025451;28;20498;-73
2022/10/25 08:33:05;;;;;;;9.95;4.85;;;;;;;11.98;56.13;101229.41;5009926;28;20079;-71
2022/10/25 08:35:32;;;;;;;14.10;4.00;;;;;;;12.40;55.71;101236.41;5025639;28;20057;-70
2022/10/25 08:38:02;;;;;;;9.45;4.80;;;;;;;12.46;55.25;101229.13;5006626;28;20041;-72
2022/10/25 08:41:08;;;;;;;17.85;4.15;;;;;;;11.97;55.82;101241.66;5016868;28;20129;-71
2022/10/25 08:44:03;;;;;;;11.63;4.43;;;;;;;12.17;55.57;101240.84;5025869;28;20048;-71
2022/10/25 08:46:34;;;;;;;15.95;4.65;;;;;;;12.49;54.64;101238.63;5007737;28;20674;-71
2022/10/25 08:49:16;;;;;;;9.70;5.07;;;;;;;13.06;53.77;101238.84;5025350;28;20077;-74
2022/10/25 08:51:45;;;;;;;13.57;4.75;;;;;;;12.44;53.86;101245.84;5023015;28;20032;-72
2022/10/25 08:54:20;;;;;;;12.02;4.03;;;;;;;12.45;54.27;101252.81;5023529;28;20026;-70
2022/10/25 08:56:47;;;;;;;13.60;3.97;;;;;;;12.40;53.98;101258.25;5024325;28;20044;-72
2022/10/25 08:59:19;;;;;;;14.90;4.00;;;;;;;12.32;54.94;101254.25;5026250;28;20506;-73
2022/10/25 09:01:51;;;;;;;12.98;3.47;;;;;;;11.61;56.87;101265.72;5024139;28;20057;-72
2022/10/25 09:04:17;;;;;;;12.27;3.70;;;;;;;11.67;56.69;101272.50;5026171;28;20041;-72
2022/10/25 09:07:02;;;;;;;9.50;4.15;;;;;;;12.59;54.19;101276.69;5024507;28;20126;-71
2022/10/25 09:09:36;;;;;;;14.55;4.53;;;;;;;12.76;53.47;101283.00;5011689;28;20324;-71
2022/10/25 09:12:31;;;;;;;10.60;3.75;;;;;;;12.43;54.94;101292.19;5007763;28;20052;-71
2022/10/25 09:15:18;;;;;;;10.95;3.38;;;;;;;12.40;55.05;101289.72;5022767;28;20025;-71
2022/10/25 09:17:52;;;;;;;13.80;3.33;;;;;;;12.51;54.13;101297.09;5023626;28;20037;-71
2022/10/25 09:20:22;;;;;;;10.82;2.47;;;;;;;12.05;55.19;101296.38;5007286;28;20052;-71
2022/10/25 09:22:53;;;;;;;7.47;3.28;;;;;;;12.26;54.71;101300.72;5025071;28;20071;-71
2022/10/25 09:25:44;;;;;;;13.75;2.92;;;;;;;12.62;54.17;101307.16;5024012;28;20037;-71
2022/10/25 09:28:17;;;;;;;10.50;2.72;;;;;;;12.67;53.99;101305.22;5004540;28;20048;-73
2022/10/25 09:30:43;;;;;;;9.98;2.83;;;;;;;12.82;53.77;101308.97;5025416;28;20081;-71
2022/10/25 09:33:17;;;;;;;13.38;3.72;;;;;;;13.06;52.51;101302.66;5022673;28;20516;-71
2022/10/25 09:35:47;;;;;;;14.50;2.78;;;;;;;12.86;53.35;101315.78;5024971;28;20116;-72
2022/10/25 09:38:40;;;;;;;5.75;2.00;;;;;;;12.63;53.51;101312.34;5021881;28;20077;-71
2022/10/25 09:41:22;;;;;;;9.63;2.30;;;;;;;12.59;53.87;101329.13;5010482;28;20036;-71
2022/10/25 09:43:56;;;;;;;14.15;3.47;;;;;;;13.13;52.63;101324.25;5011641;28;20060;-71
2022/10/25 09:46:38;;;;;;;12.07;2.72;;;;;;;13.44;51.52;101315.00;5023265;28;20132;-71
2022/10/25 09:49:41;;;;;;;12.13;1.92;;;;;;;13.62;50.93;101318.63;5026257;28;20045;-72
2022/10/25 09:52:44;;;;;;;11.75;1.95;;;;;;;14.10;49.55;101314.63;5024529;28;20804;-72
2022/10/25 09:55:20;;;;;;;9.32;1.90;;;;;;;13.07;51.29;101320.13;5013197;28;20029;-71
2022/10/25 09:57:45;;;;;;;10.50;2.47;;;;;;;13.40;50.74;101327.41;5024036;28;20080;-72
2022/10/25 10:00:13;;;;;;;8.85;1.65;;;;;;;13.07;51.71;101335.88;5022717;28;20104;-72
2022/10/25 10:02:39;;;;;;;6.68;2.17;;;;;;;13.11;52.11;101332.19;5005984;28;20526;-72
2022/10/25 10:05:12;;;;;;;5.70;1.55;;;;;;;12.91;51.42;101337.44;5026208;28;20110;-72
2022/10/25 10:07:39;;;;;;;5.47;1.33;;;;;;;13.20;50.68;101340.59;5023355;28;20076;-72
2022/10/25 10:10:10;;;;;;;7.30;1.73;;;;;;;12.43;53.03;101346.41;4994274;28;20025;-72
2022/10/25 10:12:42;;;;;;;6.93;2.22;;;;;;;12.61;52.36;101353.50;5025461;28;20100;-72
2022/10/25 10:15:21;;;;;;;13.65;2.30;;;;;;;12.39;52.88;101353.53;5005793;28;20033;-72
2022/10/25 10:17:47;;;;;;;10.88;1.55;;;;;;;12.47;52.34;101354.06;5015068;28;20038;-72
2022/10/25 10:20:15;;;;;;;8.70;1.65;;;;;;;12.86;50.70;101355.16;5024177;28;20040;-71
2022/10/25 10:22:59;;;;;;;10.02;1.35;;;;;;;12.97;51.00;101346.81;5022785;28;20132;-70
2022/10/25 10:25:26;;;;;;;7.15;1.17;;;;;;;13.13;50.92;101350.50;5023976;28;20048;-72
2022/10/25 10:27:55;;;;;;;9.35;2.03;;;;;;;12.79;52.65;101351.09;5023759;28;20306;-72
2022/10/25 10:30:28;;;;;;;8.48;2.60;;;;;;;12.80;53.04;101344.91;5006203;28;20209;-71
2022/10/25 10:33:08;;;;;;;7.90;2.40;;;;;;;13.78;50.23;101353.75;5023444;28;20067;-71
2022/10/25 10:35:35;;;;;;;9.95;2.03;;;;;;;13.60;50.18;101354.59;5023948;28;20048;-73
2022/10/25 10:38:27;;;;;;;10.85;2.28;;;;;;;13.40;50.87;101348.41;5022860;28;20534;-72
2022/10/25 10:41:13;;;;;;;4.80;0.88;;;;;;;13.42;51.21;101351.84;5024045;28;20127;-72
2022/10/25 10:43:39;;;;;;;8.05;2.15;;;;;;;13.59;50.85;101345.88;5022918;28;20045;-71
2022/10/25 10:46:14;;;;;;;5.57;1.75;;;;;;;13.59;49.67;101350.28;5025913;28;20123;-72
2022/10/25 10:48:42;;;;;;;11.27;2.15;;;;;;;13.02;50.89;101348.31;5021090;28;20497;-72
2022/10/25 10:51:09;;;;;;;5.93;1.40;;;;;;;12.92;51.11;101352.28;5025626;28;20056;-72
2022/10/25 10:53:35;;;;;;;12.50;1.70;;;;;;;13.87;48.70;101342.81;5020126;28;20171;-71
2022/10/25 10:56:04;;;;;;;9.30;1.17;;;;;;;13.55;49.68;101351.31;5024654;28;20728;-72
2022/10/25 10:58:37;;;;;;;10.07;1.95;;;;;;;13.55;49.31;101356.56;4991743;28;20120;-71
2022/10/25 11:01:07;;;;;;;5.40;1.83;;;;;;;13.44;49.51;101351.78;5024800;28;20860;-72
2022/10/25 11:03:41;;;;;;;10.35;2.08;;;;;;;13.08;49.83;101353.31;5008896;28;20057;-71
2022/10/25 11:06:17;;;;;;;4.72;1.63;;;;;;;13.42;49.87;101359.72;5027759;28;20045;-71
2022/10/25 11:08:45;;;;;;;11.52;1.23;;;;;;;13.55;49.68;101354.78;5025404;28;20136;-72
2022/10/25 11:11:14;;;;;;;9.13;1.50;;;;;;;14.00;49.52;101358.03;5013856;28;20053;-72
2022/10/25 11:13:45;;;;;;;5.40;1.50;;;;;;;14.54;49.23;101364.22;5026641;28;20052;-72
2022/10/25 11:16:19;;;;;;;3.80;1.58;;;;;;;14.03;48.71;101368.38;5027247;28;20068;-71
2022/10/25 11:19:03;;;;;;;13.38;2.40;;;;;;;13.38;49.13;101368.63;5025966;28;20041;-71
2022/10/25 11:22:04;;;;;;;11.45;1.27;;;;;;;13.06;50.01;101378.75;5009995;28;20040;-72
2022/10/25 11:24:52;;;;;;;7.82;1.17;;;;;;;13.96;48.42;101369.59;5029656;28;20077;-71
2022/10/25 11:27:40;;;;;;;7.75;1.60;;;;;;;13.03;49.96;101381.53;5011835;28;20100;-71
2022/10/25 11:30:20;;;;;;;12.35;1.30;;;;;;;13.68;49.22;101378.75;5014933;28;20453;-71
2022/10/25 11:33:07;;;;;;;7.45;0.95;;;;;;;14.30;48.59;101382.88;5026175;28;20398;-71